createdAt,value
2019-02-27T00:02:41.940Z,9.70
2019-02-27T00:07:44.355Z,10.82
2019-02-27T00:12:46.422Z,10.58
2019-02-27T00:17:51.162Z,11.40
2019-02-27T00:22:52.944Z,10.70
2019-02-27T00:27:55.124Z,10.38
2019-02-27T00:32:57.376Z,11.97
2019-02-27T00:37:59.495Z,11.88
2019-02-27T00:43:01.618Z,10.93
2019-02-27T00:48:04.045Z,10.82
2019-02-27T00:53:06.527Z,11.05
2019-02-27T00:58:08.641Z,10.48
2019-02-27T01:03:11.259Z,9.95
2019-02-27T01:08:13.391Z,10.98
2019-02-27T01:13:15.526Z,9.80
2019-02-27T01:18:17.579Z,10.23
2019-02-27T01:23:19.739Z,9.63
2019-02-27T01:28:22.537Z,9.50
2019-02-27T01:33:24.597Z,9.45
2019-02-27T01:38:26.659Z,9.40
2019-02-27T01:43:28.798Z,8.20
2019-02-27T01:48:30.946Z,8.85
2019-02-27T01:53:33.042Z,8.78
2019-02-27T01:58:35.030Z,8.30
2019-02-27T02:03:37.185Z,8.08
2019-02-27T02:08:39.382Z,8.35
2019-02-27T02:14:20.963Z,8.18
2019-02-27T02:19:59.672Z,9.25
2019-02-27T02:25:29.006Z,8.13
2019-02-27T02:31:18.666Z,9.00
2019-02-27T02:36:51.862Z,8.20
2019-02-27T02:42:17.961Z,8.48
2019-02-27T02:47:43.750Z,8.35
2019-02-27T02:53:40.038Z,8.15
2019-02-27T02:59:26.239Z,8.05
2019-02-27T03:05:00.621Z,7.65
2019-02-27T03:10:26.842Z,8.63
2019-02-27T03:15:46.901Z,8.20
2019-02-27T03:21:11.114Z,8.03
2019-02-27T03:26:22.181Z,8.55
2019-02-27T03:32:07.515Z,7.78
2019-02-27T03:37:36.807Z,8.00
2019-02-27T03:43:20.004Z,8.30
2019-02-27T03:49:02.980Z,7.75
2019-02-27T03:54:21.385Z,8.98
2019-02-27T04:00:00.463Z,8.33
2019-02-27T04:05:46.279Z,8.28
2019-02-27T04:10:48.616Z,7.55
2019-02-27T04:15:53.798Z,7.75
2019-02-27T04:20:55.629Z,8.35
2019-02-27T04:25:57.827Z,7.62
2019-02-27T04:30:59.963Z,7.80
2019-02-27T04:36:02.099Z,7.80
2019-02-27T04:41:04.260Z,7.15
2019-02-27T04:46:06.326Z,8.40
2019-02-27T04:51:08.909Z,8.38
2019-02-27T04:56:10.981Z,8.65
2019-02-27T05:01:13.115Z,7.62
2019-02-27T05:06:15.414Z,8.43
2019-02-27T05:11:17.653Z,8.55
2019-02-27T05:16:19.659Z,8.43
2019-02-27T05:21:22.034Z,8.40
2019-02-27T05:26:27.105Z,8.93
2019-02-27T05:31:28.333Z,8.05
2019-02-27T05:36:31.736Z,8.68
2019-02-27T05:41:34.564Z,9.78
2019-02-27T05:46:38.457Z,9.50
2019-02-27T05:51:41.347Z,9.58
2019-02-27T05:56:43.484Z,9.25
2019-02-27T06:01:46.485Z,9.18
2019-02-27T06:06:48.880Z,9.20
2019-02-27T06:11:51.074Z,8.43
2019-02-27T06:16:53.290Z,8.30
2019-02-27T06:21:56.277Z,9.33
2019-02-27T06:26:59.061Z,9.28
2019-02-27T06:32:01.299Z,8.50
2019-02-27T06:37:03.666Z,9.23
2019-02-27T06:42:06.011Z,9.53
2019-02-27T06:47:08.252Z,9.85
2019-02-27T06:52:10.483Z,9.33
2019-02-27T06:57:13.066Z,9.83
2019-02-27T07:02:15.497Z,10.03
2019-02-27T07:07:17.644Z,10.98
2019-02-27T07:12:21.910Z,8.88
2019-02-27T07:17:23.644Z,8.03
2019-02-27T07:22:26.103Z,8.60
2019-02-27T07:27:31.204Z,9.28
2019-02-27T07:32:34.298Z,9.15
2019-02-27T07:37:36.382Z,8.28
2019-02-27T07:42:38.495Z,8.98
2019-02-27T07:47:40.552Z,8.78
2019-02-27T07:52:42.638Z,8.70
2019-02-27T07:57:44.757Z,7.78
2019-02-27T08:02:47.019Z,7.35
2019-02-27T08:07:49.923Z,8.05
2019-02-27T08:12:55.515Z,7.67
2019-02-27T08:17:57.983Z,7.58
2019-02-27T08:23:00.226Z,7.55
2019-02-27T08:28:02.364Z,7.30
2019-02-27T08:33:08.220Z,8.15
2019-02-27T08:38:10.248Z,7.90
2019-02-27T08:43:12.462Z,8.20
2019-02-27T08:48:17.110Z,8.33
2019-02-27T08:53:19.022Z,8.73
2019-02-27T08:58:21.495Z,9.10
2019-02-27T09:03:23.626Z,9.00
2019-02-27T09:08:25.694Z,8.05
2019-02-27T09:13:27.799Z,8.08
2019-02-27T09:18:29.978Z,8.45
2019-02-27T09:23:32.285Z,8.78
2019-02-27T09:28:34.338Z,9.05
2019-02-27T09:33:39.061Z,9.03
2019-02-27T09:38:40.391Z,8.78
2019-02-27T09:43:42.444Z,8.88
2019-02-27T09:48:44.462Z,9.35
2019-02-27T09:53:46.924Z,9.15
2019-02-27T09:58:49.018Z,9.25
2019-02-27T10:03:51.976Z,9.63
2019-02-27T10:08:56.497Z,9.30
2019-02-27T10:13:59.108Z,9.80
2019-02-27T10:19:01.204Z,9.78
2019-02-27T10:24:04.855Z,10.32
2019-02-27T10:29:07.441Z,9.15
2019-02-27T10:34:09.491Z,9.15
2019-02-27T10:39:11.616Z,9.70
2019-02-27T10:44:14.011Z,9.65
2019-02-27T10:49:16.069Z,10.10
2019-02-27T10:54:18.092Z,10.30
2019-02-27T10:59:22.242Z,9.43
2019-02-27T11:04:24.305Z,10.18
2019-02-27T11:09:27.851Z,9.75
2019-02-27T11:14:31.976Z,9.43
2019-02-27T11:19:34.873Z,9.10
2019-02-27T11:24:37.314Z,10.25
2019-02-27T11:29:39.458Z,9.03
2019-02-27T11:34:41.624Z,8.88
2019-02-27T11:39:43.723Z,9.80
2019-02-27T11:44:49.418Z,9.68
2019-02-27T11:49:49.780Z,9.20
2019-02-27T11:54:51.885Z,10.08
2019-02-27T11:59:53.947Z,8.20
2019-02-27T12:04:56.679Z,8.88
2019-02-27T12:09:58.835Z,8.63
2019-02-27T12:15:01.335Z,9.65
2019-02-27T12:20:04.036Z,9.50
2019-02-27T12:25:07.117Z,10.55
2019-02-27T12:30:14.500Z,10.45
2019-02-27T12:35:27.462Z,11.10
2019-02-27T12:40:29.653Z,9.98
2019-02-27T12:45:31.785Z,10.10
2019-02-27T12:50:34.022Z,10.23
2019-02-27T12:55:36.481Z,9.10
2019-02-27T13:00:39.988Z,9.23
2019-02-27T13:05:43.141Z,8.83
2019-02-27T13:10:45.265Z,8.55
2019-02-27T13:15:47.321Z,8.90
2019-02-27T13:20:49.443Z,7.33
2019-02-27T13:25:51.724Z,7.22
2019-02-27T13:30:53.870Z,7.95
2019-02-27T13:35:56.816Z,8.08
2019-02-27T13:40:59.947Z,8.68
2019-02-27T13:46:02.018Z,9.08
2019-02-27T13:51:04.334Z,8.80
2019-02-27T13:56:06.484Z,8.23
2019-02-27T14:01:08.839Z,8.10
2019-02-27T14:06:11.046Z,9.68
2019-02-27T14:11:13.149Z,9.10
2019-02-27T14:16:15.280Z,9.00
2019-02-27T14:21:17.328Z,9.45
2019-02-27T14:26:19.484Z,8.45
2019-02-27T14:31:21.556Z,7.95
2019-02-27T14:36:23.702Z,8.33
2019-02-27T14:41:25.774Z,8.40
2019-02-27T14:46:27.792Z,7.75
2019-02-27T14:51:29.899Z,8.05
2019-02-27T14:56:32.226Z,7.90
2019-02-27T15:01:34.462Z,7.55
2019-02-27T15:06:36.583Z,6.55
2019-02-27T15:11:38.659Z,5.12
2019-02-27T15:16:40.915Z,5.25
2019-02-27T15:21:43.909Z,5.22
2019-02-27T15:26:50.377Z,3.45
2019-02-27T15:31:52.147Z,3.95
2019-02-27T15:36:55.822Z,3.60
2019-02-27T15:41:57.860Z,3.75
2019-02-27T15:46:59.993Z,3.77
2019-02-27T15:52:06.425Z,3.80
2019-02-27T15:57:06.080Z,4.30
2019-02-27T16:02:08.214Z,4.58
2019-02-27T16:07:11.218Z,4.40
2019-02-27T16:12:14.208Z,4.70
2019-02-27T16:17:16.259Z,5.10
2019-02-27T16:22:18.380Z,5.10
2019-02-27T16:27:20.495Z,5.00
2019-02-27T16:32:22.712Z,4.65
2019-02-27T16:37:24.763Z,4.97
2019-02-27T16:42:28.561Z,5.78
2019-02-27T16:47:32.290Z,5.35
2019-02-27T16:52:34.743Z,5.03
2019-02-27T16:57:36.814Z,4.53
2019-02-27T17:02:39.058Z,4.83
2019-02-27T17:07:41.125Z,4.42
2019-02-27T17:12:43.210Z,3.67
2019-02-27T17:17:45.249Z,3.80
2019-02-27T17:22:47.365Z,3.60
2019-02-27T17:27:51.208Z,4.05
2019-02-27T17:32:53.794Z,4.78
2019-02-27T17:37:56.106Z,4.15
2019-02-27T17:42:58.432Z,4.03
2019-02-27T17:48:00.591Z,6.10
2019-02-27T17:53:02.719Z,6.70
2019-02-27T17:58:04.849Z,6.58
2019-02-27T18:03:07.079Z,6.60
2019-02-27T18:08:09.112Z,6.70
2019-02-27T18:13:11.497Z,6.85
2019-02-27T18:18:13.745Z,8.95
2019-02-27T18:23:15.919Z,10.10
2019-02-27T18:28:17.939Z,9.28
2019-02-27T18:33:20.016Z,10.00
2019-02-27T18:38:27.576Z,10.28
2019-02-27T18:43:27.235Z,9.65
2019-02-27T18:48:31.541Z,9.73
2019-02-27T18:53:33.907Z,9.98
2019-02-27T18:58:36.219Z,9.55
2019-02-27T19:03:38.328Z,10.53
2019-02-27T19:08:40.386Z,9.90
2019-02-27T19:13:42.429Z,9.28
2019-02-27T19:18:44.655Z,9.98
2019-02-27T19:23:49.541Z,9.05
2019-02-27T19:28:50.859Z,8.10
2019-02-27T19:33:52.935Z,9.18
2019-02-27T19:38:55.044Z,8.80
2019-02-27T19:43:57.227Z,8.93
2019-02-27T19:49:00.876Z,9.45
2019-02-27T19:54:04.185Z,8.95
2019-02-27T19:59:07.414Z,10.18
2019-02-27T20:04:10.224Z,9.55
2019-02-27T20:09:20.745Z,9.78
2019-02-27T20:14:23.158Z,9.48
2019-02-27T20:19:28.240Z,9.53
2019-02-27T20:24:29.318Z,9.70
2019-02-27T20:29:31.441Z,9.23
2019-02-27T20:34:33.506Z,10.43
2019-02-27T20:39:36.113Z,9.75
2019-02-27T20:44:38.780Z,9.68
2019-02-27T20:49:40.971Z,10.35
2019-02-27T20:54:43.021Z,12.63
2019-02-27T20:59:45.117Z,12.70
2019-02-27T21:04:47.282Z,12.25
2019-02-27T21:09:49.384Z,11.95
2019-02-27T21:14:51.474Z,13.00
2019-02-27T21:19:54.172Z,12.93
2019-02-27T21:24:56.343Z,14.38
2019-02-27T21:29:58.449Z,12.68
2019-02-27T21:35:00.684Z,13.20
2019-02-27T21:40:03.457Z,13.43
2019-02-27T21:45:07.711Z,11.75
2019-02-27T21:50:12.024Z,11.73
2019-02-27T21:55:14.196Z,11.85
2019-02-27T22:00:20.246Z,11.05
2019-02-27T22:05:22.389Z,10.20
2019-02-27T22:10:24.444Z,10.38
2019-02-27T22:15:27.212Z,10.20
2019-02-27T22:20:29.400Z,10.75
2019-02-27T22:25:31.455Z,10.32
2019-02-27T22:30:33.783Z,10.43
2019-02-27T22:35:37.844Z,10.20
2019-02-27T22:40:39.840Z,10.55
2019-02-27T22:45:43.966Z,10.20
2019-02-27T22:50:46.048Z,11.00
2019-02-27T22:55:48.129Z,10.88
2019-02-27T23:01:14.989Z,10.20
2019-02-27T23:06:17.032Z,11.22
2019-02-27T23:11:19.136Z,11.10
2019-02-27T23:16:22.023Z,10.53
2019-02-27T23:21:26.601Z,11.15
2019-02-27T23:26:28.581Z,10.30
2019-02-27T23:31:30.757Z,11.22
2019-02-27T23:36:32.859Z,11.15
2019-02-27T23:41:35.013Z,10.60
2019-02-27T23:46:37.122Z,11.43
2019-02-27T23:51:39.242Z,11.25
2019-02-27T23:56:41.299Z,11.43
